Portada
METAR-TAF:

METAR-TAF

Aeroports :

Aeroport de Melilla

Melilla, Espanya

latitud: 35-17N, longitud: 002-57W, altitud: 47 m

Observació

L'informe es va fer fa 32 minuts, a les 22:00 UTC
Vent 4 kt del Est, variant entre Nord/Nord-Est i Sud-Est
Temperatura 23°C
Humitat 83%
Pressió 1013 hPa
Visibilitat 10 km o més
Escasses núvols a una alçada de 1400 ft

METAR: GEML 272200Z AUTO 08004KT 030V140 9999 FEW014 23/20 Q1013

Hora: 00:32 (22:32 UTC)

Pronòstic

L'informe es va fer fa 5 hores i 32 minuts, a les 17:00 UTC
Pronòstic vàlid del 27 a les 18 UTC al 28 a les 18 UTC
Vent 6 kt del Est
Visibilitat 10 km o més
Núvols disperses a una alçada de 1500 ft
Probabilitat 40% :
Temporalment
l' 28 a les 00 UTC al 28 a les 08 UTC
Cel ennuvolat a una alçada de 500 ft

TAF: GEML 271700Z 2718/2818 09006KT 9999 SCT015 TX31/2814Z TN23/2722Z PROB40 TEMPO 2800/2808 BKN005

Observacions i pronòstics meteorològics de més de 4000 aeroports (METAR i TAF).

Les estacions disponibles són els punts grocs i vermells al mapa.

Posi el ratolí al punt desitjat per veure el nom de l'estació.

Feu clic per veure les observacions i els pronòstics meteorològics.

Per canviar el mapa: feu clic els botons verds amb una creu de color negre per apropar; al botó verd amb un guió per allunyar la imatge; o en les fletxes verdes per a mapes adjacents.


METAR-TAF: